createdAt,value
2016-11-22T00:00:10.201Z,932.43
2016-11-22T00:01:20.739Z,932.45
2016-11-22T00:02:31.273Z,932.42
2016-11-22T00:03:41.803Z,932.47
2016-11-22T00:04:52.536Z,932.46
2016-11-22T00:06:03.087Z,932.51
2016-11-22T00:07:28.142Z,932.55
2016-11-22T00:08:38.686Z,932.55
2016-11-22T00:09:49.713Z,932.57
2016-11-22T00:11:14.775Z,932.56
2016-11-22T00:12:39.835Z,932.56
2016-11-22T00:13:50.375Z,932.57
2016-11-22T00:16:25.966Z,932.59
2016-11-22T00:17:51.024Z,932.61
2016-11-22T00:19:01.555Z,932.6
2016-11-22T00:20:12.212Z,932.64
2016-11-22T00:21:23.254Z,932.65
2016-11-22T00:22:33.788Z,932.67
2016-11-22T00:23:44.318Z,932.7
2016-11-22T00:24:54.850Z,932.69
2016-11-22T00:26:05.381Z,932.7
2016-11-22T00:27:15.917Z,932.74
2016-11-22T00:28:26.455Z,932.75
2016-11-22T00:29:51.510Z,932.82
2016-11-22T00:31:02.082Z,932.82
2016-11-22T00:32:12.815Z,932.83
2016-11-22T00:33:23.840Z,932.78
2016-11-22T00:34:34.372Z,932.78
2016-11-22T00:35:44.904Z,932.76
2016-11-22T00:36:55.536Z,932.7
2016-11-22T00:38:06.076Z,932.74
2016-11-22T00:39:16.607Z,932.71
2016-11-22T00:40:27.169Z,932.72
2016-11-22T00:41:37.706Z,932.71
2016-11-22T00:42:48.438Z,932.71
2016-11-22T00:43:58.973Z,932.73
2016-11-22T00:45:09.503Z,932.76
2016-11-22T00:46:20.039Z,932.78
2016-11-22T00:47:30.575Z,932.75
2016-11-22T00:48:41.205Z,932.76
2016-11-22T00:49:51.736Z,932.74
2016-11-22T00:51:02.275Z,932.79
2016-11-22T00:52:13.346Z,932.76
2016-11-22T00:53:23.885Z,932.79
2016-11-22T00:54:34.614Z,932.77
2016-11-22T00:55:45.147Z,932.83
2016-11-22T00:56:55.679Z,932.81
2016-11-22T00:58:20.745Z,932.84
2016-11-22T00:59:31.306Z,932.79
2016-11-22T01:00:56.365Z,932.83
2016-11-22T01:02:06.908Z,932.86
2016-11-22T01:03:17.440Z,932.83
2016-11-22T01:04:27.972Z,932.8
2016-11-22T01:05:38.709Z,932.82
2016-11-22T01:08:29.327Z,932.8
2016-11-22T01:09:40.093Z,932.78
2016-11-22T01:10:50.655Z,932.74
2016-11-22T01:12:01.693Z,932.74
2016-11-22T01:13:26.748Z,932.7
2016-11-22T01:14:37.775Z,932.74
2016-11-22T01:15:48.306Z,932.74
2016-11-22T01:17:13.350Z,932.73
2016-11-22T01:18:23.789Z,932.75
2016-11-22T01:19:34.237Z,932.72
2016-11-22T01:20:44.681Z,932.76
2016-11-22T01:21:55.121Z,932.78
2016-11-22T01:23:05.561Z,932.78
2016-11-22T01:24:16.002Z,932.8
2016-11-22T01:25:26.444Z,932.83
2016-11-22T01:26:36.887Z,932.81
2016-11-22T01:27:47.327Z,932.82
2016-11-22T01:28:57.772Z,932.79
2016-11-22T01:30:08.221Z,932.78
2016-11-22T01:31:18.659Z,932.8
2016-11-22T01:32:29.099Z,932.77
2016-11-22T01:33:39.565Z,932.74
2016-11-22T01:34:50.040Z,932.75
2016-11-22T01:36:00.476Z,932.71
2016-11-22T01:37:11.104Z,932.73
2016-11-22T01:38:21.426Z,932.73
2016-11-22T01:39:31.748Z,932.74
2016-11-22T01:40:42.067Z,932.75
2016-11-22T01:42:06.957Z,932.72
2016-11-22T01:43:17.480Z,932.71
2016-11-22T01:44:27.803Z,932.71
2016-11-22T01:45:38.126Z,932.7
2016-11-22T01:46:48.448Z,932.66
2016-11-22T01:47:58.768Z,932.68
2016-11-22T01:49:09.118Z,932.64
2016-11-22T01:50:19.935Z,932.64
2016-11-22T01:51:30.257Z,932.63
2016-11-22T01:52:40.585Z,932.61
2016-11-22T01:53:51.012Z,932.61
2016-11-22T01:55:01.330Z,932.6
2016-11-22T01:56:11.652Z,932.61
2016-11-22T01:57:21.974Z,932.6
2016-11-22T01:58:32.304Z,932.6
2016-11-22T01:59:42.825Z,932.6
2016-11-22T02:00:53.146Z,932.57
2016-11-22T02:02:03.462Z,932.55
2016-11-22T02:03:13.779Z,932.54
2016-11-22T02:04:24.101Z,932.55
2016-11-22T02:05:34.422Z,932.56
2016-11-22T02:06:44.745Z,932.6
2016-11-22T02:07:55.065Z,932.63
2016-11-22T02:09:05.385Z,932.66
2016-11-22T02:10:15.704Z,932.65
2016-11-22T02:11:26.126Z,932.61
2016-11-22T02:12:36.537Z,932.59
2016-11-22T02:13:46.976Z,932.56
2016-11-22T02:14:57.415Z,932.57
2016-11-22T02:16:07.875Z,932.54
2016-11-22T02:17:18.314Z,932.57
2016-11-22T02:18:28.780Z,932.58
2016-11-22T02:19:39.221Z,932.63
2016-11-22T02:20:49.661Z,932.6
2016-11-22T02:22:00.102Z,932.6
2016-11-22T02:23:10.755Z,932.61
2016-11-22T02:24:21.199Z,932.57
2016-11-22T02:25:31.664Z,932.55
2016-11-22T02:26:42.103Z,932.55
2016-11-22T02:28:07.115Z,932.54
2016-11-22T02:29:17.754Z,932.58
2016-11-22T02:31:53.667Z,932.56
2016-11-22T02:33:04.106Z,932.6
2016-11-22T02:34:14.746Z,932.59
2016-11-22T02:35:25.190Z,932.57
2016-11-22T02:36:35.631Z,932.54
2016-11-22T02:37:46.561Z,932.57
2016-11-22T02:38:56.998Z,932.6
2016-11-22T02:40:07.451Z,932.55
2016-11-22T02:41:17.888Z,932.55
2016-11-22T02:42:28.326Z,932.53
2016-11-22T02:43:38.765Z,932.54
2016-11-22T02:44:49.308Z,932.55
2016-11-22T02:45:59.749Z,932.54
2016-11-22T02:47:10.199Z,932.55
2016-11-22T02:48:20.637Z,932.54
2016-11-22T02:49:31.074Z,932.55
2016-11-22T02:50:41.514Z,932.54
2016-11-22T02:51:51.953Z,932.53
2016-11-22T02:53:02.395Z,932.49
2016-11-22T02:54:12.831Z,932.46
2016-11-22T02:55:23.269Z,932.42
2016-11-22T02:56:33.907Z,932.45
2016-11-22T02:57:44.348Z,932.44
2016-11-22T02:58:54.794Z,932.42
2016-11-22T03:00:05.236Z,932.41
2016-11-22T03:01:15.675Z,932.42
2016-11-22T03:02:26.700Z,932.39
2016-11-22T03:03:37.144Z,932.42
2016-11-22T03:04:47.584Z,932.4
2016-11-22T03:05:58.508Z,932.4
2016-11-22T03:07:08.959Z,932.39
2016-11-22T03:08:19.507Z,932.38
2016-11-22T03:09:30.446Z,932.37
2016-11-22T03:10:40.886Z,932.35
2016-11-22T03:11:51.327Z,932.29
2016-11-22T03:13:01.773Z,932.25
2016-11-22T03:14:12.241Z,932.22
2016-11-22T03:15:22.679Z,932.2
2016-11-22T03:16:33.120Z,932.2
2016-11-22T03:17:43.561Z,932.21
2016-11-22T03:18:53.999Z,932.17
2016-11-22T03:20:04.539Z,932.16
2016-11-22T03:21:14.970Z,932.11
2016-11-22T03:22:25.295Z,932.13
2016-11-22T03:23:35.619Z,932.08
2016-11-22T03:24:45.947Z,932.07
2016-11-22T03:25:56.398Z,932.06
2016-11-22T03:27:06.746Z,932.01
2016-11-22T03:28:17.063Z,931.99
2016-11-22T03:29:27.388Z,931.98
2016-11-22T03:30:37.708Z,932
2016-11-22T03:31:48.176Z,932.02
2016-11-22T03:32:58.586Z,932
2016-11-22T03:34:09.531Z,931.95
2016-11-22T03:35:19.945Z,931.93
2016-11-22T03:36:30.355Z,931.86
2016-11-22T03:37:40.869Z,931.8
2016-11-22T03:38:51.279Z,931.81
2016-11-22T03:40:01.689Z,931.82
2016-11-22T03:41:12.112Z,931.78
2016-11-22T03:42:23.007Z,931.83
2016-11-22T03:43:33.423Z,931.81
2016-11-22T03:44:43.870Z,931.81
2016-11-22T03:45:54.282Z,931.8
2016-11-22T03:47:04.692Z,931.81
2016-11-22T03:48:29.657Z,931.81
2016-11-22T03:49:40.172Z,931.82
2016-11-22T03:50:50.579Z,931.82
2016-11-22T03:52:00.990Z,931.73
2016-11-22T03:53:11.404Z,931.76
2016-11-22T03:54:22.016Z,931.74
2016-11-22T03:55:46.977Z,931.71
2016-11-22T03:56:57.429Z,931.68
2016-11-22T03:58:07.991Z,931.63
2016-11-22T03:59:18.527Z,931.57
2016-11-22T04:00:29.057Z,931.56
2016-11-22T04:01:39.595Z,931.56
2016-11-22T04:02:50.127Z,931.58
2016-11-22T04:04:00.661Z,931.56
2016-11-22T04:05:11.190Z,931.54
2016-11-22T04:06:21.723Z,931.52
2016-11-22T04:07:32.262Z,931.55
2016-11-22T04:08:42.793Z,931.57
2016-11-22T04:09:53.334Z,931.54
2016-11-22T04:11:04.361Z,931.54
2016-11-22T04:12:14.890Z,931.53
2016-11-22T04:13:25.420Z,931.45
2016-11-22T04:14:35.952Z,931.43
2016-11-22T04:15:46.482Z,931.45
2016-11-22T04:16:57.213Z,931.44
2016-11-22T04:18:07.742Z,931.4
2016-11-22T04:19:18.300Z,931.35
2016-11-22T04:21:54.387Z,931.36
2016-11-22T04:23:04.918Z,931.39
2016-11-22T04:24:15.452Z,931.4
2016-11-22T04:25:25.984Z,931.39
2016-11-22T04:26:36.514Z,931.38
2016-11-22T04:28:01.773Z,931.4
2016-11-22T04:29:12.307Z,931.41
2016-11-22T04:30:22.840Z,931.38
2016-11-22T04:31:33.371Z,931.41
2016-11-22T04:32:43.903Z,931.4
2016-11-22T04:33:54.434Z,931.42
2016-11-22T04:35:04.972Z,931.42
2016-11-22T04:36:15.503Z,931.41
2016-11-22T04:37:26.037Z,931.43
2016-11-22T04:38:36.570Z,931.42
2016-11-22T04:39:47.110Z,931.41
2016-11-22T04:40:57.648Z,931.37
2016-11-22T04:42:08.179Z,931.41
2016-11-22T04:43:19.711Z,931.42
2016-11-22T04:44:30.349Z,931.32
2016-11-22T04:45:40.886Z,931.29
2016-11-22T04:46:51.415Z,931.3
2016-11-22T04:48:01.951Z,931.27
2016-11-22T04:49:12.985Z,931.32
2016-11-22T04:50:23.624Z,931.31
2016-11-22T04:51:34.156Z,931.28
2016-11-22T04:52:44.687Z,931.29
2016-11-22T04:53:55.220Z,931.27
2016-11-22T04:55:05.747Z,931.29
2016-11-22T04:56:16.476Z,931.27
2016-11-22T04:57:27.010Z,931.25
2016-11-22T04:58:37.538Z,931.21
2016-11-22T04:59:48.067Z,931.2
2016-11-22T05:02:23.566Z,931.22
2016-11-22T05:03:34.007Z,931.25
2016-11-22T05:04:44.480Z,931.24
2016-11-22T05:05:54.917Z,931.24
2016-11-22T05:07:05.457Z,931.25
2016-11-22T05:08:15.896Z,931.21
2016-11-22T05:09:26.332Z,931.25
2016-11-22T05:10:36.773Z,931.26
2016-11-22T05:11:47.212Z,931.3
2016-11-22T05:12:57.851Z,931.36
2016-11-22T05:14:08.288Z,931.33
2016-11-22T05:15:18.724Z,931.34
2016-11-22T05:16:29.207Z,931.33
2016-11-22T05:17:39.644Z,931.4
2016-11-22T05:18:50.283Z,931.41
2016-11-22T05:20:00.747Z,931.48
2016-11-22T05:21:11.183Z,931.5
2016-11-22T05:22:21.621Z,931.51
2016-11-22T05:23:32.062Z,931.47
2016-11-22T05:24:42.498Z,931.44
2016-11-22T05:25:52.937Z,931.4
2016-11-22T05:27:03.386Z,931.32
2016-11-22T05:28:13.838Z,931.27
2016-11-22T05:29:24.310Z,931.28
2016-11-22T05:30:34.750Z,931.23
2016-11-22T05:31:45.187Z,931.21
2016-11-22T05:32:55.629Z,931.24
2016-11-22T05:34:06.069Z,931.22
2016-11-22T05:35:16.513Z,931.25
2016-11-22T05:36:41.493Z,931.19
2016-11-22T05:37:51.933Z,931.16
2016-11-22T05:39:02.370Z,931.19
2016-11-22T05:40:12.807Z,931.17
2016-11-22T05:41:23.344Z,931.18
2016-11-22T05:42:33.787Z,931.19
2016-11-22T05:43:44.230Z,931.15
2016-11-22T05:44:54.676Z,931.12
2016-11-22T05:46:05.115Z,931.08
2016-11-22T05:47:15.554Z,931.05
2016-11-22T05:48:25.995Z,931.05
2016-11-22T05:49:36.440Z,931.03
2016-11-22T05:50:46.878Z,931.06
2016-11-22T05:51:57.321Z,931.05
2016-11-22T05:53:08.344Z,931.07
2016-11-22T05:54:18.781Z,931.06
2016-11-22T05:55:43.769Z,931.08
2016-11-22T05:56:54.235Z,931.07
2016-11-22T05:58:04.679Z,931.08
2016-11-22T05:59:15.120Z,931.02
2016-11-22T06:00:25.558Z,931.07
2016-11-22T06:01:36.000Z,931.05
2016-11-22T06:02:46.441Z,931.07
2016-11-22T06:03:56.976Z,931.08
2016-11-22T06:05:07.444Z,931.06
2016-11-22T06:06:17.883Z,931.04
2016-11-22T06:07:28.824Z,931.01
2016-11-22T06:08:39.262Z,931.01
2016-11-22T06:09:49.701Z,931.04
2016-11-22T06:11:00.624Z,930.98
2016-11-22T06:12:11.065Z,930.99
2016-11-22T06:13:21.505Z,930.94
2016-11-22T06:14:31.944Z,930.95
2016-11-22T06:15:42.571Z,930.95
2016-11-22T06:16:52.898Z,930.97
2016-11-22T06:18:03.217Z,931.02
2016-11-22T06:19:13.539Z,931.08
2016-11-22T06:20:23.862Z,931.1
2016-11-22T06:21:34.284Z,931.11
2016-11-22T06:22:44.608Z,931.14
2016-11-22T06:23:54.933Z,931.07
2016-11-22T06:26:31.009Z,931.07
2016-11-22T06:27:41.431Z,931.09
2016-11-22T06:28:51.783Z,931.09
2016-11-22T06:30:02.101Z,931.1
2016-11-22T06:31:12.425Z,931.13
2016-11-22T06:32:22.743Z,931.12
2016-11-22T06:33:33.062Z,931.16
2016-11-22T06:34:43.380Z,931.19
2016-11-22T06:35:53.700Z,931.21
2016-11-22T06:37:04.019Z,931.21
2016-11-22T06:38:14.448Z,931.2
2016-11-22T06:39:24.806Z,931.22
2016-11-22T06:40:35.129Z,931.21
2016-11-22T06:41:45.452Z,931.22
2016-11-22T06:42:55.771Z,931.25
2016-11-22T06:44:06.090Z,931.27
2016-11-22T06:45:16.418Z,931.32
2016-11-22T06:46:26.741Z,931.33
2016-11-22T06:47:37.058Z,931.33
2016-11-22T06:48:47.386Z,931.34
2016-11-22T06:51:23.067Z,931.34
2016-11-22T06:52:33.389Z,931.38
2016-11-22T06:53:43.707Z,931.38
2016-11-22T06:54:54.027Z,931.44
2016-11-22T06:56:04.451Z,931.42
2016-11-22T06:57:14.778Z,931.45
2016-11-22T06:58:25.100Z,931.47
2016-11-22T06:59:35.422Z,931.46
2016-11-22T07:00:45.782Z,931.43
2016-11-22T07:01:56.101Z,931.44
2016-11-22T07:03:20.986Z,931.39
2016-11-22T07:04:31.306Z,931.37
2016-11-22T07:05:41.645Z,931.33
2016-11-22T07:06:52.172Z,931.4
2016-11-22T07:08:17.060Z,931.45
2016-11-22T07:09:27.382Z,931.45
2016-11-22T07:10:37.704Z,931.48
2016-11-22T07:11:48.121Z,931.53
2016-11-22T07:13:13.526Z,931.58
2016-11-22T07:14:24.321Z,931.59
2016-11-22T07:15:34.639Z,931.59
2016-11-22T07:16:45.080Z,931.62
2016-11-22T07:17:55.978Z,931.64
2016-11-22T07:19:06.387Z,931.61
2016-11-22T07:20:16.825Z,931.59
2016-11-22T07:21:27.236Z,931.58
2016-11-22T07:22:37.684Z,931.55
2016-11-22T07:23:48.094Z,931.53
2016-11-22T07:24:58.504Z,931.5
2016-11-22T07:26:08.927Z,931.45
2016-11-22T07:28:44.712Z,931.41
2016-11-22T07:29:55.248Z,931.44
2016-11-22T07:31:05.783Z,931.47
2016-11-22T07:32:16.310Z,931.51
2016-11-22T07:33:26.838Z,931.53
2016-11-22T07:34:37.379Z,931.49
2016-11-22T07:35:47.920Z,931.56
2016-11-22T07:38:23.510Z,931.53
2016-11-22T07:39:34.139Z,931.54
2016-11-22T07:40:44.671Z,931.52
2016-11-22T07:41:55.203Z,931.46
2016-11-22T07:43:05.730Z,931.54
2016-11-22T07:44:30.892Z,931.5
2016-11-22T07:45:41.453Z,931.53
2016-11-22T07:46:51.983Z,931.59
2016-11-22T07:48:02.517Z,931.63
2016-11-22T07:49:13.247Z,931.65
2016-11-22T07:50:23.785Z,931.7
2016-11-22T07:54:24.421Z,931.75
2016-11-22T07:55:34.981Z,931.76
2016-11-22T07:56:45.515Z,931.8
2016-11-22T07:57:56.044Z,931.84
2016-11-22T07:59:06.579Z,931.88
2016-11-22T08:00:17.111Z,931.86
2016-11-22T08:01:27.644Z,931.89
2016-11-22T08:02:38.176Z,931.95
2016-11-22T08:03:48.739Z,931.93
2016-11-22T08:04:59.269Z,931.9
2016-11-22T08:06:10.025Z,931.91
2016-11-22T08:07:20.552Z,931.91
2016-11-22T08:08:31.085Z,931.93
2016-11-22T08:09:41.611Z,931.9
2016-11-22T08:10:52.158Z,931.89
2016-11-22T08:12:02.789Z,931.88
2016-11-22T08:13:13.320Z,931.87
2016-11-22T08:14:23.850Z,931.91
2016-11-22T08:15:34.389Z,931.93
2016-11-22T08:16:44.922Z,931.95
2016-11-22T08:17:55.653Z,931.97
2016-11-22T08:19:06.681Z,932
2016-11-22T08:20:17.213Z,932.01
2016-11-22T08:21:27.741Z,932.02
2016-11-22T08:22:38.267Z,932.02
2016-11-22T08:23:49.005Z,932.05
2016-11-22T08:24:59.536Z,932.06
2016-11-22T08:26:10.064Z,932.06
2016-11-22T08:27:21.097Z,932.08
2016-11-22T08:28:31.629Z,932.07
2016-11-22T08:29:42.200Z,932.05
2016-11-22T08:30:52.729Z,932.07
2016-11-22T08:32:03.261Z,932.05
2016-11-22T08:33:13.789Z,932.07
2016-11-22T08:34:24.378Z,932.1
2016-11-22T08:35:34.907Z,932.09
2016-11-22T08:36:45.439Z,932.12
2016-11-22T08:37:55.967Z,932.2
2016-11-22T08:39:06.500Z,932.22
2016-11-22T08:40:17.031Z,932.29
2016-11-22T08:41:27.585Z,932.33
2016-11-22T08:42:38.640Z,932.34
2016-11-22T08:43:49.198Z,932.38
2016-11-22T08:44:59.725Z,932.42
2016-11-22T08:46:10.269Z,932.45
2016-11-22T08:47:20.910Z,932.47
2016-11-22T08:48:31.350Z,932.53
2016-11-22T08:49:41.789Z,932.53
2016-11-22T08:50:52.229Z,932.53
2016-11-22T08:52:17.210Z,932.52
2016-11-22T08:53:27.768Z,932.54
2016-11-22T08:54:38.201Z,932.51
2016-11-22T08:55:48.645Z,932.56
2016-11-22T08:56:59.083Z,932.6
2016-11-22T08:58:09.657Z,932.66
2016-11-22T08:59:20.095Z,932.64
2016-11-22T09:00:31.021Z,932.67
2016-11-22T09:01:41.460Z,932.69
2016-11-22T09:02:51.898Z,932.74
2016-11-22T09:04:02.334Z,932.75
2016-11-22T09:05:12.769Z,932.76
2016-11-22T09:06:23.211Z,932.82
2016-11-22T09:07:33.648Z,932.85
2016-11-22T09:08:44.084Z,932.87
2016-11-22T09:09:54.722Z,932.93
2016-11-22T09:11:05.645Z,932.96
2016-11-22T09:12:16.081Z,932.99
2016-11-22T09:13:26.529Z,932.98
2016-11-22T09:14:36.971Z,932.94
2016-11-22T09:15:47.407Z,932.96
2016-11-22T09:16:57.845Z,933.05
2016-11-22T09:18:08.281Z,933.08
2016-11-22T09:19:18.721Z,933.1
2016-11-22T09:20:29.167Z,933.06
2016-11-22T09:21:40.226Z,933.09
2016-11-22T09:22:50.672Z,933.11
2016-11-22T09:24:01.107Z,933.15
2016-11-22T09:25:11.545Z,933.19
2016-11-22T09:26:21.980Z,933.23
2016-11-22T09:27:32.515Z,933.27
2016-11-22T09:28:42.956Z,933.29
2016-11-22T09:29:53.403Z,933.29
2016-11-22T09:31:03.841Z,933.3
2016-11-22T09:32:14.274Z,933.3
2016-11-22T09:33:24.715Z,933.37
2016-11-22T09:34:35.153Z,933.38
2016-11-22T09:35:45.591Z,933.41
2016-11-22T09:36:56.032Z,933.37
2016-11-22T09:38:06.489Z,933.36
2016-11-22T09:39:17.617Z,933.4
2016-11-22T09:40:28.055Z,933.36
2016-11-22T09:41:38.490Z,933.42
2016-11-22T09:42:48.929Z,933.4
2016-11-22T09:43:59.360Z,933.43
2016-11-22T09:45:09.796Z,933.4
2016-11-22T09:46:20.124Z,933.39
2016-11-22T09:47:30.445Z,933.37
2016-11-22T09:48:40.779Z,933.36
2016-11-22T09:49:51.582Z,933.34
2016-11-22T09:51:01.904Z,933.31
2016-11-22T09:52:12.221Z,933.34
2016-11-22T09:53:22.543Z,933.29
2016-11-22T09:54:33.341Z,933.29
2016-11-22T09:55:43.667Z,933.3
2016-11-22T09:56:54.188Z,933.22
2016-11-22T09:58:04.509Z,933.25
2016-11-22T10:03:04.033Z,933.25
2016-11-22T10:04:14.367Z,933.24
2016-11-22T10:05:24.834Z,933.26
2016-11-22T10:06:35.271Z,933.25
2016-11-22T10:07:45.713Z,933.34
2016-11-22T10:08:56.349Z,933.37
2016-11-22T10:10:06.785Z,933.36
2016-11-22T10:11:17.222Z,933.5
2016-11-22T10:12:27.695Z,933.48
2016-11-22T10:13:38.140Z,933.54
2016-11-22T10:14:48.575Z,933.55
2016-11-22T10:15:59.012Z,933.52
2016-11-22T10:17:09.467Z,933.6
2016-11-22T10:18:19.899Z,933.62
2016-11-22T10:19:44.913Z,933.55
2016-11-22T10:21:10.003Z,933.61
2016-11-22T10:22:20.324Z,933.64
2016-11-22T10:23:45.217Z,933.66
2016-11-22T10:24:55.537Z,933.72
2016-11-22T10:26:05.860Z,933.75
2016-11-22T10:27:16.654Z,933.71
2016-11-22T10:28:26.979Z,933.71
2016-11-22T10:29:37.297Z,933.7
2016-11-22T10:30:47.722Z,933.74
2016-11-22T10:31:58.040Z,933.8
2016-11-22T10:33:08.359Z,933.86
2016-11-22T10:34:18.684Z,933.86
2016-11-22T10:35:29.007Z,933.91
2016-11-22T10:36:39.322Z,933.93
2016-11-22T10:37:49.643Z,933.89
2016-11-22T10:39:14.528Z,933.89
2016-11-22T10:40:24.848Z,933.83
2016-11-22T10:41:35.174Z,933.86
2016-11-22T10:42:45.591Z,933.8
2016-11-22T10:43:55.911Z,933.82
2016-11-22T10:45:06.236Z,933.79
2016-11-22T10:46:17.043Z,933.83
2016-11-22T10:47:27.559Z,933.83
2016-11-22T10:48:37.878Z,933.83
2016-11-22T10:49:48.197Z,933.8
2016-11-22T10:50:58.511Z,933.8
2016-11-22T10:52:09.306Z,933.81
2016-11-22T10:53:20.300Z,933.84
2016-11-22T10:54:31.446Z,933.82
2016-11-22T10:55:41.771Z,933.83
2016-11-22T10:56:52.566Z,933.75
2016-11-22T10:58:02.992Z,933.73
2016-11-22T10:59:13.997Z,933.8
2016-11-22T11:00:38.893Z,933.77
2016-11-22T11:01:49.300Z,933.78
2016-11-22T11:02:59.711Z,933.83
2016-11-22T11:04:10.119Z,933.82
2016-11-22T11:05:20.734Z,933.79
2016-11-22T11:06:31.153Z,933.83
2016-11-22T11:07:41.563Z,933.79
2016-11-22T11:09:06.561Z,933.78
2016-11-22T11:10:17.465Z,933.82
2016-11-22T11:11:27.875Z,933.87
2016-11-22T11:12:38.286Z,933.87
2016-11-22T11:13:48.691Z,933.89
2016-11-22T11:14:59.099Z,933.84
2016-11-22T11:16:09.509Z,933.9
2016-11-22T11:17:19.918Z,933.85
2016-11-22T11:18:30.332Z,933.8
2016-11-22T11:19:40.742Z,933.72
2016-11-22T11:20:51.152Z,933.77
2016-11-22T11:22:01.561Z,933.74
2016-11-22T11:23:27.028Z,933.74
2016-11-22T11:24:37.440Z,933.74
2016-11-22T11:25:47.854Z,933.73
2016-11-22T11:26:58.468Z,933.74
2016-11-22T11:28:08.878Z,933.68
2016-11-22T11:29:19.306Z,933.63
2016-11-22T11:30:29.839Z,933.62
2016-11-22T11:31:40.624Z,933.6
2016-11-22T11:32:51.149Z,933.6
2016-11-22T11:34:01.680Z,933.69
2016-11-22T11:35:12.221Z,933.75
2016-11-22T11:36:22.750Z,933.79
2016-11-22T11:37:33.280Z,933.79
2016-11-22T11:38:43.823Z,933.84
2016-11-22T11:40:08.884Z,933.81
2016-11-22T11:41:19.413Z,933.78
2016-11-22T11:42:29.943Z,933.77
2016-11-22T11:43:40.472Z,933.76
2016-11-22T11:44:51.006Z,933.76
2016-11-22T11:46:02.052Z,933.79
2016-11-22T11:47:12.585Z,933.73
2016-11-22T11:48:23.319Z,933.67
2016-11-22T11:49:33.855Z,933.69
2016-11-22T11:50:44.386Z,933.67
2016-11-22T11:51:54.915Z,933.7
2016-11-22T11:53:05.459Z,933.69
2016-11-22T11:54:15.989Z,933.7
2016-11-22T11:55:26.529Z,933.63
2016-11-22T11:56:37.085Z,933.63
2016-11-22T11:57:47.642Z,933.6
2016-11-22T11:58:58.174Z,933.59
2016-11-22T12:00:08.902Z,933.57
2016-11-22T12:01:19.461Z,933.53
2016-11-22T12:02:30.491Z,933.47
2016-11-22T12:03:41.024Z,933.53
2016-11-22T12:04:51.555Z,933.53
2016-11-22T12:06:02.087Z,933.52
2016-11-22T12:07:12.618Z,933.56
2016-11-22T12:08:23.653Z,933.56
2016-11-22T12:09:34.188Z,933.57
2016-11-22T12:10:44.726Z,933.64
2016-11-22T12:11:55.481Z,933.6
2016-11-22T12:13:06.012Z,933.67
2016-11-22T12:14:16.545Z,933.64
2016-11-22T12:16:52.681Z,933.69
2016-11-22T12:18:03.214Z,933.66
2016-11-22T12:19:13.763Z,933.63
2016-11-22T12:20:24.335Z,933.62
2016-11-22T12:21:34.877Z,933.56
2016-11-22T12:22:45.610Z,933.58
2016-11-22T12:24:10.672Z,933.59
2016-11-22T12:25:21.204Z,933.54
2016-11-22T12:26:31.746Z,933.51
2016-11-22T12:27:42.277Z,933.49
2016-11-22T12:28:52.811Z,933.52
2016-11-22T12:30:03.349Z,933.53
2016-11-22T12:31:13.887Z,933.52
2016-11-22T12:32:24.424Z,933.52
2016-11-22T12:33:34.955Z,933.52
2016-11-22T12:34:45.489Z,933.46
2016-11-22T12:35:56.024Z,933.48
2016-11-22T12:37:06.556Z,933.51
2016-11-22T12:38:17.076Z,933.48
2016-11-22T12:39:27.487Z,933.42
2016-11-22T12:40:52.463Z,933.42
2016-11-22T12:42:02.872Z,933.38
2016-11-22T12:43:13.288Z,933.33
2016-11-22T12:44:23.745Z,933.27
2016-11-22T12:45:34.156Z,933.28
2016-11-22T12:46:44.578Z,933.26
2016-11-22T12:47:55.013Z,933.31
2016-11-22T12:49:19.980Z,933.22
2016-11-22T12:50:30.390Z,933.29
2016-11-22T12:51:40.803Z,933.29
2016-11-22T12:52:51.212Z,933.24
2016-11-22T12:54:01.627Z,933.3
2016-11-22T12:55:12.041Z,933.24
2016-11-22T12:56:37.007Z,933.28
2016-11-22T12:57:47.427Z,933.26
2016-11-22T12:59:12.395Z,933.19
2016-11-22T13:00:22.809Z,933.21
2016-11-22T13:01:33.221Z,933.17
2016-11-22T13:02:43.633Z,933.21
2016-11-22T13:03:54.041Z,933.21
2016-11-22T13:05:04.504Z,933.2
2016-11-22T13:06:14.919Z,933.21
2016-11-22T13:07:25.346Z,933.19
2016-11-22T13:08:35.883Z,933.19
2016-11-22T13:13:30.092Z,933.27
2016-11-22T13:14:40.417Z,933.23
2016-11-22T13:15:50.763Z,933.24
2016-11-22T13:17:01.174Z,933.14
2016-11-22T13:18:26.139Z,933.19
2016-11-22T13:19:36.553Z,933.18
2016-11-22T13:20:46.967Z,933.19
2016-11-22T13:21:57.380Z,933.18
2016-11-22T13:23:22.343Z,933.17
2016-11-22T13:24:32.769Z,933.22
2016-11-22T13:25:43.178Z,933.18
2016-11-22T13:26:53.590Z,933.2
2016-11-22T13:28:04.602Z,933.17
2016-11-22T13:29:15.502Z,933.17
2016-11-22T13:30:25.917Z,933.16
2016-11-22T13:31:36.326Z,933.12
2016-11-22T13:32:46.738Z,933.11
2016-11-22T13:33:57.351Z,933.09
2016-11-22T13:35:22.320Z,933.06
2016-11-22T13:36:32.738Z,933.05
2016-11-22T13:37:43.157Z,933.03
2016-11-22T13:38:53.567Z,932.98
2016-11-22T13:40:04.476Z,933.03
2016-11-22T13:41:15.540Z,933.02
2016-11-22T13:42:25.960Z,932.91
2016-11-22T13:43:36.381Z,932.83
2016-11-22T13:45:01.351Z,932.78
2016-11-22T13:46:11.768Z,932.78
2016-11-22T13:47:22.186Z,932.79
2016-11-22T13:48:33.098Z,932.81
2016-11-22T13:49:43.517Z,932.81
2016-11-22T13:50:53.936Z,932.78
2016-11-22T13:52:04.363Z,932.83
2016-11-22T13:53:15.263Z,932.77
2016-11-22T13:54:26.161Z,932.79
2016-11-22T13:55:36.774Z,932.87
2016-11-22T13:56:47.188Z,932.8
2016-11-22T13:57:57.603Z,932.77
2016-11-22T13:59:08.019Z,932.75
2016-11-22T14:00:18.412Z,932.76
2016-11-22T14:01:28.739Z,932.72
2016-11-22T14:02:39.090Z,932.75
2016-11-22T14:03:49.416Z,932.77
2016-11-22T14:04:59.745Z,932.66
2016-11-22T14:06:25.119Z,932.73
2016-11-22T14:07:35.475Z,932.78
2016-11-22T14:08:45.805Z,932.77
2016-11-22T14:09:56.606Z,932.8
2016-11-22T14:11:06.976Z,932.67
2016-11-22T14:12:17.305Z,932.62
2016-11-22T14:13:27.634Z,932.66
2016-11-22T14:14:37.960Z,932.67
2016-11-22T14:15:48.763Z,932.63
2016-11-22T14:16:59.109Z,932.62
2016-11-22T14:18:09.462Z,932.57
2016-11-22T14:19:19.792Z,932.54
2016-11-22T14:20:30.112Z,932.53
2016-11-22T14:21:40.433Z,932.5
2016-11-22T14:22:50.777Z,932.49
2016-11-22T14:24:01.229Z,932.52
2016-11-22T14:25:11.687Z,932.5
2016-11-22T14:26:22.136Z,932.46
2016-11-22T14:27:32.577Z,932.48
2016-11-22T14:28:43.023Z,932.45
2016-11-22T14:29:53.470Z,932.36
2016-11-22T14:31:03.915Z,932.37
2016-11-22T14:32:28.904Z,932.36
2016-11-22T14:33:53.890Z,932.29
2016-11-22T14:35:04.342Z,932.18
2016-11-22T14:36:14.786Z,932.22
2016-11-22T14:37:25.235Z,932.15
2016-11-22T14:38:35.688Z,932.21
2016-11-22T14:39:46.134Z,932.12
2016-11-22T14:40:56.676Z,932.14
2016-11-22T14:42:07.130Z,932.13
2016-11-22T14:43:17.779Z,932.12
2016-11-22T14:44:28.722Z,932.04
2016-11-22T14:45:39.678Z,932.05
2016-11-22T14:46:50.819Z,931.98
2016-11-22T14:48:01.862Z,931.99
2016-11-22T14:49:12.396Z,932.09
2016-11-22T14:50:22.939Z,932.05
2016-11-22T14:51:33.476Z,932.02
2016-11-22T14:52:44.009Z,931.99
2016-11-22T14:53:54.543Z,932.08
2016-11-22T14:55:19.604Z,932.16
2016-11-22T14:56:30.134Z,932.1
2016-11-22T14:57:40.682Z,932.13
2016-11-22T14:58:51.215Z,932.13
2016-11-22T15:00:01.753Z,932.14
2016-11-22T15:01:12.290Z,932.06
2016-11-22T15:02:37.351Z,932.03
2016-11-22T15:03:47.885Z,932.07
2016-11-22T15:04:58.425Z,932.02
2016-11-22T15:06:08.959Z,932.01
2016-11-22T15:07:34.021Z,932.03
2016-11-22T15:08:44.566Z,932.1
2016-11-22T15:09:55.106Z,931.98
2016-11-22T15:11:05.641Z,932.04
2016-11-22T15:12:16.175Z,932.03
2016-11-22T15:13:26.711Z,932.03
2016-11-22T15:14:37.456Z,932.04
2016-11-22T15:16:02.519Z,931.97
2016-11-22T15:17:13.055Z,931.99
2016-11-22T15:18:23.586Z,931.99